Time;durP1;ratioP1;P1;durP2;ratioP2;P2;SDS_P1;SDS_P2;PMS_P1;PMS_P2;Temp;Humidity;BMP_temperature;BMP_pressure;BME280_temperature;BME280_humidity;BME280_pressure;Samples;Min_cycle;Max_cycle;Signal;HPM_P1;HPM_P2
2023/07/06 00:00:16;;;;;;;2.25;1.70;;;16.30;55.40;;;;;;5038317;28;20439;-59
2023/07/06 00:02:42;;;;;;;7.45;2.10;;;16.30;55.40;;;;;;5041400;28;20056;-59
2023/07/06 00:05:09;;;;;;;6.50;1.65;;;16.30;55.50;;;;;;5038381;28;20578;-59
2023/07/06 00:07:35;;;;;;;2.40;2.08;;;16.20;55.50;;;;;;5036953;28;20345;-59
2023/07/06 00:10:04;;;;;;;3.80;2.15;;;16.20;55.60;;;;;;5038743;28;20033;-60
2023/07/06 00:12:30;;;;;;;5.70;2.10;;;16.20;55.40;;;;;;5034848;28;20047;-59
2023/07/06 00:14:56;;;;;;;2.28;1.73;;;16.20;55.20;;;;;;5042085;28;20032;-59
2023/07/06 00:17:21;;;;;;;3.42;2.00;;;16.10;55.70;;;;;;5039711;28;20052;-59
2023/07/06 00:19:48;;;;;;;2.58;1.70;;;16.10;55.20;;;;;;5041419;28;20116;-58
2023/07/06 00:22:15;;;;;;;2.85;1.70;;;16.10;55.50;;;;;;5041427;28;20029;-58
2023/07/06 00:24:46;;;;;;;5.03;1.67;;;16.10;55.50;;;;;;5037438;28;20022;-60
2023/07/06 00:27:15;;;;;;;3.50;1.80;;;16.10;55.70;;;;;;5022389;28;20029;-59
2023/07/06 00:29:56;;;;;;;4.07;2.00;;;16.10;55.70;;;;;;5037135;28;20022;-59
2023/07/06 00:32:31;;;;;;;4.32;2.05;;;16.00;55.60;;;;;;5030837;28;20029;-59
2023/07/06 00:34:58;;;;;;;3.00;2.00;;;16.00;55.40;;;;;;5034222;28;20361;-60
2023/07/06 00:37:26;;;;;;;3.00;1.73;;;16.00;55.30;;;;;;5039859;28;20037;-58
2023/07/06 00:39:52;;;;;;;3.90;1.70;;;15.90;55.30;;;;;;5040204;28;20095;-59
2023/07/06 00:42:20;;;;;;;5.43;1.80;;;15.90;55.40;;;;;;5042189;28;20033;-60
2023/07/06 00:44:57;;;;;;;3.92;1.80;;;15.90;55.50;;;;;;5033856;28;20057;-59
2023/07/06 00:47:29;;;;;;;2.60;1.88;;;15.80;56.10;;;;;;5039741;28;20041;-60
2023/07/06 00:49:57;;;;;;;2.15;1.50;;;15.80;56.30;;;;;;5041125;28;20040;-59
2023/07/06 00:52:23;;;;;;;7.78;2.10;;;15.80;56.00;;;;;;5040105;28;20029;-59
2023/07/06 00:54:49;;;;;;;5.85;1.90;;;15.70;55.80;;;;;;5040799;28;20060;-60
2023/07/06 00:57:17;;;;;;;5.82;2.22;;;15.70;55.70;;;;;;5039148;28;20034;-60
2023/07/06 00:59:44;;;;;;;5.70;1.83;;;15.70;56.00;;;;;;5039771;28;20061;-59
2023/07/06 01:02:15;;;;;;;2.38;1.90;;;15.70;56.00;;;;;;5040504;28;20029;-58
2023/07/06 01:04:42;;;;;;;3.05;1.60;;;15.60;56.10;;;;;;5037385;28;20075;-60
2023/07/06 01:07:12;;;;;;;2.03;1.77;;;15.60;56.00;;;;;;5038311;28;20041;-59
2023/07/06 01:09:39;;;;;;;3.45;1.85;;;15.60;56.00;;;;;;5039154;28;20030;-59
2023/07/06 01:12:05;;;;;;;3.63;1.63;;;15.60;55.90;;;;;;5040587;28;20026;-60
2023/07/06 01:14:32;;;;;;;15.48;1.95;;;15.60;56.10;;;;;;5040075;28;20112;-58
2023/07/06 01:17:07;;;;;;;2.58;1.90;;;15.60;56.30;;;;;;5038268;28;20041;-59
2023/07/06 01:19:53;;;;;;;3.30;2.00;;;15.60;56.40;;;;;;5038909;28;20381;-58
2023/07/06 01:22:38;;;;;;;4.32;2.03;;;15.60;57.40;;;;;;5035470;28;20111;-58
2023/07/06 01:25:35;;;;;;;5.28;2.03;;;15.50;57.10;;;;;;5036618;28;20046;-59
2023/07/06 01:28:30;;;;;;;3.65;2.00;;;15.60;57.30;;;;;;5035063;28;20025;-60
2023/07/06 01:31:15;;;;;;;2.35;1.80;;;15.50;58.10;;;;;;5031849;28;20064;-59
2023/07/06 01:33:53;;;;;;;3.17;1.95;;;15.50;56.40;;;;;;5037651;28;20067;-58
2023/07/06 01:36:37;;;;;;;3.75;2.33;;;15.50;57.20;;;;;;5039405;28;20037;-59
2023/07/06 01:39:15;;;;;;;1.90;1.67;;;15.50;56.90;;;;;;5038825;28;20025;-58
2023/07/06 01:41:43;;;;;;;3.53;1.85;;;15.50;56.90;;;;;;4992727;28;20025;-58
2023/07/06 01:44:12;;;;;;;3.13;2.13;;;15.50;56.40;;;;;;5037947;28;20082;-60
2023/07/06 01:46:41;;;;;;;3.75;1.73;;;15.40;56.60;;;;;;5034945;28;20022;-60
2023/07/06 01:49:07;;;;;;;3.65;1.50;;;15.40;56.50;;;;;;5035796;28;20045;-58
2023/07/06 01:51:45;;;;;;;2.40;1.65;;;15.40;56.30;;;;;;5036786;28;20030;-60
2023/07/06 01:54:14;;;;;;;3.75;1.92;;;15.30;56.60;;;;;;5037283;28;20465;-60
2023/07/06 01:56:50;;;;;;;4.13;1.80;;;15.30;56.50;;;;;;5035261;28;20040;-58
2023/07/06 01:59:19;;;;;;;2.67;1.70;;;15.30;57.00;;;;;;5035004;28;20029;-59
2023/07/06 02:01:50;;;;;;;2.50;1.75;;;15.20;56.80;;;;;;5035431;28;20115;-60
2023/07/06 02:04:20;;;;;;;3.10;1.73;;;15.20;56.70;;;;;;5039041;28;20029;-60
2023/07/06 02:06:48;;;;;;;3.63;1.77;;;15.10;56.60;;;;;;5038762;28;20041;-58
2023/07/06 02:09:14;;;;;;;3.30;1.98;;;15.10;56.70;;;;;;5033016;28;20088;-59
2023/07/06 02:11:40;;;;;;;2.88;1.77;;;15.10;56.70;;;;;;5038709;28;20036;-58
2023/07/06 02:14:06;;;;;;;3.75;1.67;;;15.10;56.70;;;;;;5037427;28;20033;-58
2023/07/06 02:16:32;;;;;;;5.90;1.95;;;15.00;56.90;;;;;;5036528;28;20380;-59
2023/07/06 02:19:01;;;;;;;1.90;1.70;;;15.00;57.00;;;;;;5038287;28;20055;-58
2023/07/06 02:21:26;;;;;;;3.17;1.90;;;14.90;56.90;;;;;;5040294;28;20037;-60
2023/07/06 02:23:52;;;;;;;2.92;2.13;;;14.90;57.50;;;;;;5038096;28;20025;-59
2023/07/06 02:26:19;;;;;;;3.20;1.98;;;14.80;57.00;;;;;;5020567;28;20052;-59
2023/07/06 02:28:46;;;;;;;2.90;1.77;;;14.80;56.90;;;;;;5019049;28;20029;-59
2023/07/06 02:31:12;;;;;;;3.38;1.77;;;14.80;57.20;;;;;;5040061;28;20021;-58
2023/07/06 02:33:38;;;;;;;3.13;1.70;;;14.70;57.30;;;;;;5033481;28;20036;-60
2023/07/06 02:36:04;;;;;;;2.55;2.08;;;14.70;57.30;;;;;;5036151;28;20053;-58
2023/07/06 02:38:29;;;;;;;2.25;1.70;;;14.60;57.40;;;;;;5038862;28;20025;-60
2023/07/06 02:40:57;;;;;;;4.57;1.98;;;14.60;57.70;;;;;;5033702;28;20017;-58
2023/07/06 02:43:25;;;;;;;2.78;1.75;;;14.60;57.60;;;;;;5038803;28;20029;-58
2023/07/06 02:45:50;;;;;;;5.07;1.67;;;14.50;57.70;;;;;;5036343;28;20013;-59
2023/07/06 02:48:17;;;;;;;3.35;1.90;;;14.50;57.70;;;;;;5036737;28;20028;-59
2023/07/06 02:50:50;;;;;;;3.88;1.83;;;14.50;57.80;;;;;;5037002;28;20029;-59
2023/07/06 02:53:16;;;;;;;3.38;1.75;;;14.40;58.10;;;;;;5036622;28;20023;-59
2023/07/06 02:55:45;;;;;;;3.00;1.85;;;14.40;57.90;;;;;;5037875;28;20204;-59
2023/07/06 02:58:11;;;;;;;4.90;2.10;;;14.40;58.20;;;;;;5039003;28;20037;-59
2023/07/06 03:00:37;;;;;;;3.65;1.80;;;14.40;58.20;;;;;;5037351;28;20081;-59
2023/07/06 03:03:07;;;;;;;2.80;2.10;;;14.30;58.10;;;;;;5037795;28;20037;-58
2023/07/06 03:05:35;;;;;;;3.28;1.67;;;14.30;58.10;;;;;;5037392;28;20049;-58
2023/07/06 03:08:02;;;;;;;3.90;1.70;;;14.30;58.30;;;;;;5034424;28;20025;-58
2023/07/06 03:10:28;;;;;;;2.72;1.63;;;14.30;58.40;;;;;;5039498;28;20125;-60
2023/07/06 03:12:54;;;;;;;3.35;1.80;;;14.20;58.30;;;;;;5042343;28;20033;-59
2023/07/06 03:15:20;;;;;;;3.08;2.00;;;14.20;58.20;;;;;;5041312;28;20021;-60
2023/07/06 03:17:49;;;;;;;2.88;1.77;;;14.10;58.40;;;;;;5035481;28;20041;-58
2023/07/06 03:20:18;;;;;;;2.90;1.73;;;14.10;58.50;;;;;;5038347;28;20033;-58
2023/07/06 03:22:46;;;;;;;3.33;1.98;;;14.10;58.60;;;;;;5040836;28;20405;-59
2023/07/06 03:25:30;;;;;;;3.80;2.15;;;14.10;58.80;;;;;;5039918;28;20049;-59
2023/07/06 03:27:56;;;;;;;4.30;1.92;;;14.10;59.90;;;;;;5036841;28;20423;-59
2023/07/06 03:30:24;;;;;;;6.07;1.85;;;14.10;58.80;;;;;;5036032;28;20060;-59
2023/07/06 03:32:51;;;;;;;2.20;1.65;;;14.00;59.00;;;;;;5039909;28;20032;-59
2023/07/06 03:35:18;;;;;;;2.92;1.73;;;14.00;58.80;;;;;;5043154;28;20029;-59
2023/07/06 03:37:45;;;;;;;3.95;1.92;;;14.00;58.90;;;;;;5039425;28;20033;-58
2023/07/06 03:40:11;;;;;;;6.38;2.33;;;14.00;59.20;;;;;;5040362;28;20022;-58
2023/07/06 03:42:44;;;;;;;2.60;1.80;;;14.00;59.40;;;;;;5041177;28;20506;-60
2023/07/06 03:45:13;;;;;;;2.95;1.83;;;13.90;59.50;;;;;;5039578;28;20417;-58
2023/07/06 03:47:42;;;;;;;11.52;1.92;;;13.90;59.30;;;;;;5040194;28;20061;-58
2023/07/06 03:50:09;;;;;;;2.58;1.75;;;13.90;59.30;;;;;;5042333;28;20059;-60
2023/07/06 03:52:39;;;;;;;3.35;1.83;;;13.90;59.30;;;;;;5040226;28;20052;-58
2023/07/06 03:55:16;;;;;;;2.60;2.08;;;13.90;59.30;;;;;;5049873;28;20029;-59
2023/07/06 03:57:45;;;;;;;2.55;1.67;;;13.90;60.30;;;;;;5039848;28;20037;-59
2023/07/06 04:00:19;;;;;;;3.17;2.08;;;13.90;59.80;;;;;;5032939;28;20033;-58
2023/07/06 04:02:47;;;;;;;4.43;1.55;;;13.90;59.80;;;;;;5040065;28;20033;-58
2023/07/06 04:05:15;;;;;;;3.42;1.48;;;13.90;59.90;;;;;;5041830;28;20022;-58
2023/07/06 04:07:42;;;;;;;2.08;1.55;;;13.90;59.90;;;;;;5037917;28;20041;-58
2023/07/06 04:10:09;;;;;;;3.22;1.70;;;13.90;60.00;;;;;;5042664;28;20112;-59
2023/07/06 04:12:37;;;;;;;2.80;1.70;;;13.90;60.20;;;;;;5034480;28;20018;-58
2023/07/06 04:15:07;;;;;;;2.75;1.77;;;13.90;60.30;;;;;;5034584;28;20040;-59
2023/07/06 04:17:36;;;;;;;2.92;1.40;;;14.00;60.50;;;;;;5036421;28;20037;-59
2023/07/06 04:20:17;;;;;;;3.78;1.67;;;14.00;60.40;;;;;;5038338;28;20029;-59
2023/07/06 04:22:43;;;;;;;2.72;1.77;;;14.00;60.50;;;;;;5041475;28;20036;-59
2023/07/06 04:25:09;;;;;;;1.55;1.40;;;14.10;60.60;;;;;;5041136;28;20054;-58
2023/07/06 04:27:35;;;;;;;3.47;1.65;;;14.10;60.80;;;;;;5034154;28;20127;-59
2023/07/06 04:30:01;;;;;;;6.13;1.98;;;14.20;60.80;;;;;;5036983;28;20033;-59
2023/07/06 04:32:31;;;;;;;7.97;2.20;;;14.20;60.70;;;;;;5039601;28;20037;-59
2023/07/06 04:34:57;;;;;;;1.95;1.60;;;14.30;60.80;;;;;;5040822;28;20033;-60
2023/07/06 04:37:23;;;;;;;1.92;1.52;;;14.30;60.70;;;;;;5033905;28;20032;-59
2023/07/06 04:39:49;;;;;;;2.10;1.80;;;14.40;60.90;;;;;;5039676;28;20025;-59
2023/07/06 04:42:14;;;;;;;7.50;2.83;;;14.50;61.00;;;;;;5040854;28;20396;-58
2023/07/06 04:44:40;;;;;;;4.97;2.40;;;14.60;61.00;;;;;;5039621;28;20017;-59
2023/07/06 04:47:06;;;;;;;2.42;1.70;;;14.60;60.90;;;;;;5039449;28;20032;-59
2023/07/06 04:49:32;;;;;;;2.25;1.67;;;14.70;60.70;;;;;;5033868;28;20117;-58
2023/07/06 04:51:57;;;;;;;4.00;2.10;;;14.80;60.60;;;;;;5038767;28;20032;-58
2023/07/06 04:54:24;;;;;;;4.53;2.03;;;14.90;60.60;;;;;;5038256;28;20360;-58
2023/07/06 04:56:51;;;;;;;6.25;2.10;;;15.00;60.30;;;;;;5039575;28;20909;-59
2023/07/06 04:59:16;;;;;;;3.97;1.75;;;15.10;60.20;;;;;;5034948;28;20029;-58
2023/07/06 05:01:42;;;;;;;4.97;2.22;;;15.10;60.00;;;;;;5033878;28;20026;-59
2023/07/06 05:04:09;;;;;;;10.73;2.10;;;15.20;60.10;;;;;;5039930;28;20491;-58
2023/07/06 05:06:35;;;;;;;2.72;2.00;;;15.30;59.90;;;;;;5022303;28;20477;-57
2023/07/06 05:09:03;;;;;;;4.40;2.10;;;15.40;59.90;;;;;;5038525;28;20101;-59
2023/07/06 05:11:30;;;;;;;3.20;1.98;;;15.50;59.90;;;;;;5039291;28;20113;-61
2023/07/06 05:13:57;;;;;;;7.35;2.10;;;15.50;59.80;;;;;;5039771;28;20064;-58
2023/07/06 05:16:23;;;;;;;6.80;1.92;;;15.60;59.80;;;;;;5015478;28;20033;-58
2023/07/06 05:18:49;;;;;;;3.25;2.08;;;15.70;59.70;;;;;;5039477;28;20051;-58
2023/07/06 05:21:15;;;;;;;5.97;2.20;;;15.80;59.60;;;;;;5036452;28;20136;-59
2023/07/06 05:23:40;;;;;;;3.45;1.98;;;15.90;59.50;;;;;;5039162;28;20017;-59
2023/07/06 05:26:07;;;;;;;8.07;2.45;;;16.00;59.60;;;;;;5037795;28;20101;-59
2023/07/06 05:28:33;;;;;;;7.13;2.08;;;16.10;59.50;;;;;;5039005;28;20427;-59
2023/07/06 05:31:02;;;;;;;3.58;1.98;;;16.20;59.20;;;;;;5036837;28;20017;-58
2023/07/06 05:33:29;;;;;;;5.78;2.10;;;16.30;59.20;;;;;;5039042;28;20082;-58
2023/07/06 05:35:55;;;;;;;7.18;2.53;;;16.40;59.10;;;;;;5038642;28;20397;-59
2023/07/06 05:38:20;;;;;;;11.18;2.47;;;16.60;59.10;;;;;;5038914;28;20029;-59
2023/07/06 05:40:46;;;;;;;3.70;2.30;;;16.70;58.90;;;;;;5035422;28;20033;-58
2023/07/06 05:43:12;;;;;;;5.45;2.33;;;16.80;58.70;;;;;;5033716;28;20129;-58
2023/07/06 05:45:37;;;;;;;4.20;2.13;;;16.90;58.50;;;;;;5036417;28;20029;-57
2023/07/06 05:48:03;;;;;;;3.95;2.58;;;17.10;58.30;;;;;;5041105;28;20025;-58
2023/07/06 05:50:29;;;;;;;6.63;2.78;;;17.20;58.20;;;;;;5035425;28;20177;-58
2023/07/06 05:52:54;;;;;;;11.07;2.30;;;17.30;58.20;;;;;;5043387;28;20164;-58
2023/07/06 05:55:21;;;;;;;4.47;2.50;;;17.40;58.10;;;;;;5038932;28;20030;-59
2023/07/06 05:57:47;;;;;;;8.07;2.30;;;17.50;58.10;;;;;;5039204;28;20057;-59
2023/07/06 06:00:15;;;;;;;4.88;2.35;;;17.70;57.90;;;;;;5042218;28;20492;-58
2023/07/06 06:02:44;;;;;;;8.20;2.67;;;17.80;57.90;;;;;;5033011;28;20108;-58
2023/07/06 06:05:13;;;;;;;7.22;2.40;;;18.00;57.70;;;;;;5038357;28;20021;-58
2023/07/06 06:07:40;;;;;;;7.97;2.70;;;18.10;57.30;;;;;;5040324;28;20025;-60
2023/07/06 06:10:06;;;;;;;5.75;2.28;;;18.30;57.10;;;;;;5034879;28;20034;-58
2023/07/06 06:12:32;;;;;;;10.32;2.45;;;18.40;56.70;;;;;;5038789;28;20164;-58
2023/07/06 06:14:58;;;;;;;8.20;2.30;;;18.60;56.50;;;;;;5028521;28;20029;-58
2023/07/06 06:17:27;;;;;;;7.60;2.35;;;18.80;56.40;;;;;;5015729;28;22119;-58
2023/07/06 06:19:52;;;;;;;5.60;2.33;;;18.90;56.50;;;;;;5019295;28;20403;-58
2023/07/06 06:22:19;;;;;;;4.15;2.00;;;19.00;56.40;;;;;;5016619;28;20037;-59
2023/07/06 06:24:47;;;;;;;4.38;2.50;;;19.20;56.10;;;;;;5023702;28;20030;-59
2023/07/06 06:27:16;;;;;;;10.10;2.53;;;19.40;55.90;;;;;;5013762;28;20017;-60
2023/07/06 06:29:43;;;;;;;7.43;2.40;;;19.50;55.80;;;;;;5036436;28;20026;-58
2023/07/06 06:32:09;;;;;;;7.35;2.53;;;19.70;55.40;;;;;;5039620;28;20056;-58
2023/07/06 06:34:36;;;;;;;7.05;2.25;;;19.80;55.00;;;;;;5022105;28;20440;-58
2023/07/06 06:37:04;;;;;;;3.13;1.95;;;20.00;54.70;;;;;;5038364;28;20049;-59
2023/07/06 06:39:36;;;;;;;4.78;2.00;;;20.20;54.40;;;;;;5030314;28;20022;-59
2023/07/06 06:42:04;;;;;;;4.00;2.15;;;20.30;54.40;;;;;;4994752;28;20029;-59
2023/07/06 06:44:30;;;;;;;3.38;2.00;;;20.50;54.10;;;;;;5038304;28;20480;-59
2023/07/06 06:46:58;;;;;;;6.88;2.38;;;20.70;53.80;;;;;;5039711;28;20036;-59
2023/07/06 06:49:24;;;;;;;6.72;2.50;;;20.80;53.20;;;;;;5036414;28;20025;-58
2023/07/06 06:51:49;;;;;;;6.22;2.50;;;21.00;53.10;;;;;;5039270;28;20025;-59
2023/07/06 06:54:15;;;;;;;5.10;2.30;;;21.10;52.90;;;;;;5030470;28;20026;-58
2023/07/06 06:56:41;;;;;;;3.97;2.08;;;21.30;52.50;;;;;;5029334;28;20030;-59
2023/07/06 06:59:07;;;;;;;6.90;2.55;;;21.50;52.20;;;;;;5040367;28;20116;-58
2023/07/06 07:01:33;;;;;;;6.82;2.65;;;21.60;51.80;;;;;;5035677;28;20112;-59
2023/07/06 07:04:00;;;;;;;5.22;2.92;;;21.80;51.50;;;;;;5040281;28;20037;-59
2023/07/06 07:06:27;;;;;;;5.00;2.50;;;21.90;51.10;;;;;;5032087;28;20107;-60
2023/07/06 07:08:54;;;;;;;5.32;2.50;;;22.10;50.60;;;;;;5039966;28;20032;-59
2023/07/06 07:11:20;;;;;;;5.00;2.53;;;22.20;50.50;;;;;;5023248;28;20033;-60
2023/07/06 07:13:51;;;;;;;7.10;2.45;;;22.30;50.30;;;;;;5031990;28;20029;-59
2023/07/06 07:16:17;;;;;;;5.93;2.40;;;22.50;50.10;;;;;;5029643;28;20037;-60
2023/07/06 07:18:43;;;;;;;5.03;2.40;;;22.60;49.90;;;;;;5036761;28;20026;-60
2023/07/06 07:21:10;;;;;;;7.68;2.33;;;22.70;49.60;;;;;;5038042;28;20030;-59
2023/07/06 07:23:40;;;;;;;4.93;2.58;;;22.80;49.10;;;;;;5039497;28;20043;-59
2023/07/06 07:26:07;;;;;;;4.25;2.55;;;22.90;49.00;;;;;;5034342;28;20064;-58
2023/07/06 07:28:33;;;;;;;5.30;2.17;;;23.00;48.70;;;;;;5043053;28;20509;-59
2023/07/06 07:31:00;;;;;;;4.10;2.28;;;23.00;48.50;;;;;;5034993;28;20026;-59
2023/07/06 07:33:29;;;;;;;6.20;2.45;;;23.10;48.10;;;;;;5035334;28;20033;-59
2023/07/06 07:36:00;;;;;;;3.92;1.90;;;23.20;47.40;;;;;;5036320;28;20380;-58
2023/07/06 07:38:26;;;;;;;8.25;2.40;;;23.30;47.80;;;;;;5030158;28;20358;-58
2023/07/06 07:40:57;;;;;;;3.95;2.10;;;23.40;48.20;;;;;;5037297;28;21482;-59
2023/07/06 07:43:28;;;;;;;4.10;2.30;;;23.50;47.80;;;;;;5035922;28;20057;-60
2023/07/06 07:46:00;;;;;;;4.45;2.35;;;23.60;47.30;;;;;;5038010;28;20024;-58
2023/07/06 07:48:26;;;;;;;4.47;2.20;;;23.80;46.90;;;;;;5035678;28;20113;-59
2023/07/06 07:50:56;;;;;;;5.43;1.95;;;23.90;46.90;;;;;;5034193;28;20029;-59
2023/07/06 07:53:24;;;;;;;3.08;1.70;;;24.00;46.10;;;;;;5031379;28;20041;-60
2023/07/06 07:55:50;;;;;;;3.53;1.90;;;24.10;45.50;;;;;;5036223;28;20041;-60
2023/07/06 07:58:16;;;;;;;4.18;2.50;;;24.30;44.80;;;;;;5037531;28;20034;-60
2023/07/06 08:00:48;;;;;;;3.78;2.47;;;24.40;44.30;;;;;;5040026;28;20013;-60
2023/07/06 08:03:14;;;;;;;4.05;2.28;;;24.50;43.30;;;;;;5046938;28;20036;-60
2023/07/06 08:05:40;;;;;;;4.70;2.00;;;24.50;43.60;;;;;;5043266;28;20026;-60
2023/07/06 08:08:06;;;;;;;3.38;2.00;;;24.60;44.10;;;;;;5036830;28;20041;-59
2023/07/06 08:10:41;;;;;;;3.60;1.90;;;24.70;43.90;;;;;;5039692;28;20021;-58
2023/07/06 08:13:09;;;;;;;2.47;1.70;;;24.70;42.90;;;;;;5038873;28;20026;-60
2023/07/06 08:15:37;;;;;;;3.90;2.00;;;24.90;43.60;;;;;;5042242;28;20032;-61
2023/07/06 08:18:03;;;;;;;3.15;2.03;;;25.00;42.70;;;;;;5040000;28;20038;-60
2023/07/06 08:20:33;;;;;;;4.13;1.92;;;25.00;42.20;;;;;;5040421;28;20032;-60
2023/07/06 08:23:02;;;;;;;6.15;1.92;;;25.00;41.70;;;;;;5038703;28;20033;-60
2023/07/06 08:25:28;;;;;;;3.08;2.03;;;25.00;41.80;;;;;;5031634;28;20041;-59
2023/07/06 08:27:57;;;;;;;3.03;1.98;;;25.10;42.20;;;;;;5036883;28;20041;-59
2023/07/06 08:30:23;;;;;;;3.30;2.00;;;25.20;41.20;;;;;;5038998;28;20033;-58
2023/07/06 08:32:49;;;;;;;5.88;2.03;;;25.20;41.30;;;;;;5039753;28;20052;-59
2023/07/06 08:35:17;;;;;;;2.70;2.08;;;25.30;40.70;;;;;;5034428;28;20060;-60
2023/07/06 08:37:43;;;;;;;3.10;2.05;;;25.40;41.20;;;;;;5041168;28;20396;-60
2023/07/06 08:40:17;;;;;;;4.47;2.00;;;25.40;41.10;;;;;;5042299;28;20041;-60
2023/07/06 08:42:45;;;;;;;3.47;2.22;;;25.40;41.00;;;;;;5038935;28;20029;-59
2023/07/06 08:45:21;;;;;;;5.95;2.15;;;25.50;41.00;;;;;;5038531;28;20037;-60
2023/07/06 08:47:47;;;;;;;3.72;1.90;;;25.60;39.70;;;;;;5041479;28;20105;-59
2023/07/06 08:50:15;;;;;;;4.07;2.28;;;25.60;41.30;;;;;;5038578;28;20036;-59
2023/07/06 08:52:42;;;;;;;2.67;2.08;;;25.70;41.20;;;;;;5033596;28;20025;-60
2023/07/06 08:55:16;;;;;;;3.40;2.00;;;25.80;40.50;;;;;;5040464;28;20089;-60
2023/07/06 08:57:46;;;;;;;4.40;2.22;;;25.80;40.40;;;;;;5040240;28;20480;-59
2023/07/06 09:00:22;;;;;;;5.55;2.10;;;25.80;40.80;;;;;;5038990;28;20116;-59
2023/07/06 09:02:49;;;;;;;3.65;2.20;;;25.90;40.40;;;;;;5032280;28;20029;-59
2023/07/06 09:05:16;;;;;;;5.03;2.17;;;26.00;41.00;;;;;;5039549;28;20025;-59
2023/07/06 09:07:44;;;;;;;4.75;2.10;;;26.10;41.10;;;;;;5033424;28;20055;-60
2023/07/06 09:10:20;;;;;;;3.50;2.08;;;26.10;40.30;;;;;;5038670;28;20037;-58
2023/07/06 09:12:46;;;;;;;2.75;1.83;;;26.20;40.30;;;;;;5030539;28;20080;-59
2023/07/06 09:15:16;;;;;;;3.03;1.90;;;26.30;40.40;;;;;;5037312;28;20037;-58
2023/07/06 09:17:53;;;;;;;5.20;1.88;;;26.40;40.30;;;;;;5042176;28;20122;-60
2023/07/06 09:20:20;;;;;;;2.28;1.65;;;26.50;38.50;;;;;;5040085;28;20832;-59
2023/07/06 09:22:47;;;;;;;3.53;2.20;;;26.60;39.90;;;;;;5035984;28;20014;-60
2023/07/06 09:25:18;;;;;;;3.72;1.90;;;26.70;38.70;;;;;;5033632;28;20054;-59
2023/07/06 09:27:47;;;;;;;2.15;1.80;;;26.70;37.70;;;;;;5036311;28;20166;-59
2023/07/06 09:30:29;;;;;;;3.10;1.80;;;26.80;39.00;;;;;;5037019;28;20090;-59
2023/07/06 09:33:04;;;;;;;2.33;1.75;;;26.90;39.20;;;;;;5032506;28;20025;-60
2023/07/06 09:35:30;;;;;;;2.83;2.30;;;27.00;39.30;;;;;;5038078;28;20085;-59
2023/07/06 09:37:56;;;;;;;5.43;2.15;;;27.20;38.50;;;;;;5031663;28;20045;-59
2023/07/06 09:40:29;;;;;;;3.08;1.95;;;27.30;38.80;;;;;;5039420;28;20021;-58
2023/07/06 09:42:54;;;;;;;3.90;2.10;;;27.50;38.00;;;;;;5038519;28;20085;-60
2023/07/06 09:45:26;;;;;;;2.45;1.58;;;27.70;38.30;;;;;;5044003;28;20032;-59
2023/07/06 09:47:56;;;;;;;3.22;2.08;;;27.80;36.90;;;;;;5043620;28;20021;-60
2023/07/06 09:50:32;;;;;;;2.60;1.80;;;28.00;36.10;;;;;;5038873;28;20036;-59
2023/07/06 09:52:59;;;;;;;2.58;1.90;;;28.20;37.20;;;;;;5033363;28;20143;-58
2023/07/06 09:55:29;;;;;;;2.63;2.05;;;28.30;36.40;;;;;;5034772;28;20489;-59
2023/07/06 09:57:57;;;;;;;4.13;2.20;;;28.40;36.80;;;;;;5039441;28;20033;-59
2023/07/06 10:00:31;;;;;;;2.55;1.83;;;28.50;35.30;;;;;;5040872;28;20024;-60
2023/07/06 10:03:38;;;;;;;2.50;1.88;;;28.60;34.40;;;;;;5035847;28;20032;-60
2023/07/06 10:06:22;;;;;;;3.40;1.90;;;28.60;33.70;;;;;;5037261;28;20037;-59
2023/07/06 10:09:22;;;;;;;3.95;2.13;;;28.60;34.00;;;;;;5036198;28;20033;-59
2023/07/06 10:11:55;;;;;;;3.13;2.10;;;28.60;33.70;;;;;;5042575;28;20089;-60
2023/07/06 10:14:33;;;;;;;5.00;2.30;;;28.60;32.70;;;;;;5044517;28;20055;-60
2023/07/06 10:17:34;;;;;;;3.95;2.17;;;28.60;34.10;;;;;;5033666;28;20103;-59
2023/07/06 10:20:13;;;;;;;3.53;2.30;;;28.60;34.10;;;;;;5033324;28;20040;-60
2023/07/06 10:23:05;;;;;;;3.45;2.20;;;28.60;32.60;;;;;;5027174;28;20033;-60
2023/07/06 10:25:46;;;;;;;7.43;2.40;;;28.60;33.30;;;;;;5034976;28;20049;-59
2023/07/06 10:28:19;;;;;;;2.78;2.13;;;28.60;33.30;;;;;;5036136;28;20083;-59
2023/07/06 10:30:49;;;;;;;6.55;2.30;;;28.60;32.30;;;;;;5032988;28;20025;-59
2023/07/06 10:33:27;;;;;;;3.35;2.20;;;28.60;33.30;;;;;;5037060;28;20056;-59
2023/07/06 10:35:53;;;;;;;3.10;2.33;;;28.60;34.50;;;;;;5037439;28;20530;-60
2023/07/06 10:38:19;;;;;;;7.72;2.95;;;28.60;34.50;;;;;;5035637;28;20100;-59
2023/07/06 10:41:11;;;;;;;3.08;1.77;;;28.60;34.10;;;;;;4931577;28;20575;-59
2023/07/06 10:43:40;;;;;;;4.15;2.28;;;28.70;33.90;;;;;;5029645;28;20027;-58
2023/07/06 10:46:30;;;;;;;2.90;1.98;;;28.80;35.20;;;;;;5040797;28;20083;-59
2023/07/06 10:49:00;;;;;;;4.38;2.50;;;29.00;32.80;;;;;;5035939;28;20075;-59
2023/07/06 10:51:27;;;;;;;4.07;2.15;;;29.10;33.90;;;;;;5025288;28;20033;-59
2023/07/06 10:54:02;;;;;;;3.55;2.30;;;29.20;33.70;;;;;;5035025;28;20048;-60
2023/07/06 10:56:31;;;;;;;2.88;2.17;;;29.20;32.40;;;;;;5035330;28;20034;-60
2023/07/06 10:59:00;;;;;;;3.80;2.30;;;29.10;31.30;;;;;;5034923;28;20510;-60
2023/07/06 11:01:45;;;;;;;2.83;1.90;;;28.90;30.60;;;;;;5033286;28;20021;-60
2023/07/06 11:04:41;;;;;;;4.55;2.45;;;28.60;30.30;;;;;;5035411;28;20105;-59
2023/07/06 11:07:36;;;;;;;3.30;1.98;;;28.30;30.50;;;;;;5036920;28;20156;-58
2023/07/06 11:10:14;;;;;;;3.53;2.28;;;28.00;30.90;;;;;;5028179;28;20046;-59
2023/07/06 11:13:04;;;;;;;6.45;2.20;;;27.70;31.20;;;;;;5032376;28;20033;-59
2023/07/06 11:15:32;;;;;;;2.40;1.98;;;27.50;31.80;;;;;;5018048;28;20040;-58
2023/07/06 11:18:13;;;;;;;3.30;2.30;;;27.40;32.90;;;;;;5030375;28;20041;-59
2023/07/06 11:20:40;;;;;;;4.28;1.95;;;27.50;33.50;;;;;;5035859;28;20400;-58
2023/07/06 11:23:14;;;;;;;7.07;2.20;;;27.60;35.10;;;;;;5035359;28;20048;-59
2023/07/06 11:25:39;;;;;;;3.05;2.00;;;27.80;33.80;;;;;;5013667;28;20065;-60
2023/07/06 11:28:10;;;;;;;2.75;2.22;;;28.00;34.00;;;;;;5036905;28;20037;-59
2023/07/06 11:31:01;;;;;;;3.67;2.33;;;28.10;33.60;;;;;;5037091;28;20029;-59
2023/07/06 11:33:38;;;;;;;2.72;2.20;;;28.10;33.20;;;;;;5035897;28;20026;-58
2023/07/06 11:36:16;;;;;;;2.78;2.13;;;28.10;32.40;;;;;;5037539;28;20080;-58
2023/07/06 11:38:55;;;;;;;2.20;1.90;;;28.20;33.60;;;;;;5038528;28;20021;-60
2023/07/06 11:41:49;;;;;;;3.58;2.22;;;28.30;34.00;;;;;;5037411;28;20674;-60
2023/07/06 11:44:18;;;;;;;3.20;2.00;;;28.50;34.10;;;;;;5037059;28;20128;-60
2023/07/06 11:47:10;;;;;;;3.50;2.40;;;28.70;34.20;;;;;;5035483;28;20488;-59
2023/07/06 11:49:42;;;;;;;2.83;1.98;;;29.00;33.20;;;;;;5032244;28;20025;-60
2023/07/06 11:52:15;;;;;;;2.70;2.08;;;29.20;33.40;;;;;;5034851;28;20052;-60
2023/07/06 11:54:49;;;;;;;3.60;2.20;;;29.40;32.70;;;;;;5032057;28;20473;-60
2023/07/06 11:57:24;;;;;;;;;;;29.60;33.40;;;;;;5037134;28;20063;-60
2023/07/06 12:00:18;;;;;;;4.03;2.08;;;29.80;30.20;;;;;;5037474;28;19914;-59
2023/07/06 12:03:08;;;;;;;4.57;2.38;;;30.00;32.80;;;;;;5036177;28;20033;-59
2023/07/06 12:05:40;;;;;;;2.30;2.10;;;30.10;30.30;;;;;;5014226;28;20030;-58
2023/07/06 12:08:20;;;;;;;2.20;2.00;;;30.10;30.00;;;;;;5038555;28;20433;-60
2023/07/06 12:10:49;;;;;;;3.90;2.60;;;29.90;29.60;;;;;;5039024;28;20029;-59
2023/07/06 12:13:21;;;;;;;3.35;2.40;;;29.80;29.50;;;;;;5037895;28;20029;-59
2023/07/06 12:15:48;;;;;;;3.70;2.13;;;29.60;29.30;;;;;;5038230;28;20017;-60
2023/07/06 12:18:15;;;;;;;2.70;1.98;;;29.60;30.60;;;;;;5036071;28;20068;-58
2023/07/06 12:20:42;;;;;;;2.72;1.85;;;29.70;30.50;;;;;;5038551;28;20686;-59
2023/07/06 12:23:12;;;;;;;2.08;1.88;;;29.70;31.10;;;;;;5035559;28;20179;-60
2023/07/06 12:25:40;;;;;;;3.22;2.45;;;29.60;29.50;;;;;;5040090;28;20049;-59
2023/07/06 12:28:11;;;;;;;7.03;2.63;;;29.60;29.10;;;;;;5034643;28;20041;-60
2023/07/06 12:30:39;;;;;;;4.63;2.55;;;29.50;29.50;;;;;;5031730;28;20045;-60
2023/07/06 12:33:08;;;;;;;4.40;2.42;;;29.40;29.50;;;;;;5034553;28;20025;-58
2023/07/06 12:35:35;;;;;;;7.78;2.35;;;29.30;28.60;;;;;;5039125;28;20018;-59
2023/07/06 12:38:06;;;;;;;3.42;2.17;;;29.10;29.10;;;;;;5023456;28;20043;-59
2023/07/06 12:40:33;;;;;;;2.90;2.05;;;29.00;29.70;;;;;;5036535;28;20029;-60
2023/07/06 12:43:00;;;;;;;3.45;2.22;;;28.90;29.70;;;;;;5038049;28;20017;-58
2023/07/06 12:45:29;;;;;;;6.60;2.10;;;28.90;29.50;;;;;;5047969;28;20533;-60
2023/07/06 12:48:00;;;;;;;3.08;2.38;;;29.00;29.60;;;;;;5033619;28;20614;-59
2023/07/06 12:50:35;;;;;;;6.55;2.28;;;29.00;30.20;;;;;;5041412;28;20460;-60
2023/07/06 12:53:29;;;;;;;2.72;2.00;;;29.00;29.80;;;;;;5036876;28;20021;-59
2023/07/06 12:56:00;;;;;;;2.28;2.08;;;29.10;30.50;;;;;;5038856;28;20026;-59
2023/07/06 12:58:34;;;;;;;3.42;2.50;;;29.10;30.90;;;;;;5037216;28;20029;-59
2023/07/06 13:01:25;;;;;;;3.13;1.98;;;29.20;29.30;;;;;;5039108;28;20380;-59
2023/07/06 13:03:52;;;;;;;5.45;2.28;;;29.40;30.40;;;;;;5036147;28;20052;-60